sensor_id;sensor_type;location;lat;lon;timestamp;P1;durP1;ratioP1;P2;durP2;ratioP2
1747;SDS011;871;47.034;15.394;2022-11-20T05:02:26;34.25;;;8.38;;
1747;SDS011;871;47.034;15.394;2022-11-20T05:04:52;31.27;;;6.78;;
1747;SDS011;871;47.034;15.394;2022-11-20T05:07:18;31.40;;;6.53;;
1747;SDS011;871;47.034;15.394;2022-11-20T05:09:44;33.87;;;7.80;;
1747;SDS011;871;47.034;15.394;2022-11-20T05:12:10;33.58;;;8.20;;
1747;SDS011;871;47.034;15.394;2022-11-20T05:14:36;35.03;;;8.50;;
1747;SDS011;871;47.034;15.394;2022-11-20T05:17:02;34.00;;;8.10;;
1747;SDS011;871;47.034;15.394;2022-11-20T05:19:28;33.63;;;7.57;;
1747;SDS011;871;47.034;15.394;2022-11-20T05:21:54;32.07;;;7.03;;
1747;SDS011;871;47.034;15.394;2022-11-20T05:24:20;31.83;;;7.03;;
1747;SDS011;871;47.034;15.394;2022-11-20T05:26:47;33.67;;;7.20;;
1747;SDS011;871;47.034;15.394;2022-11-20T05:29:13;33.28;;;6.68;;
1747;SDS011;871;47.034;15.394;2022-11-20T05:31:39;32.65;;;6.10;;
1747;SDS011;871;47.034;15.394;2022-11-20T05:34:06;37.67;;;7.50;;
1747;SDS011;871;47.034;15.394;2022-11-20T05:36:33;37.03;;;6.90;;
1747;SDS011;871;47.034;15.394;2022-11-20T05:38:59;37.83;;;7.57;;
1747;SDS011;871;47.034;15.394;2022-11-20T05:41:25;38.00;;;7.27;;
1747;SDS011;871;47.034;15.394;2022-11-20T05:43:51;39.78;;;8.98;;
1747;SDS011;871;47.034;15.394;2022-11-20T05:46:18;39.40;;;8.18;;
1747;SDS011;871;47.034;15.394;2022-11-20T05:48:45;43.20;;;9.50;;
1747;SDS011;871;47.034;15.394;2022-11-20T05:51:12;41.53;;;9.25;;
1747;SDS011;871;47.034;15.394;2022-11-20T05:53:38;44.03;;;9.05;;
1747;SDS011;871;47.034;15.394;2022-11-20T05:56:06;41.05;;;8.27;;
1747;SDS011;871;47.034;15.394;2022-11-20T05:58:33;43.50;;;9.50;;
1747;SDS011;871;47.034;15.394;2022-11-20T06:01:06;41.70;;;9.18;;
1747;SDS011;871;47.034;15.394;2022-11-20T06:03:32;43.33;;;8.88;;
1747;SDS011;871;47.034;15.394;2022-11-20T06:05:59;43.33;;;9.50;;
1747;SDS011;871;47.034;15.394;2022-11-20T06:08:25;41.35;;;8.30;;
1747;SDS011;871;47.034;15.394;2022-11-20T06:10:51;46.75;;;9.45;;
1747;SDS011;871;47.034;15.394;2022-11-20T06:13:17;41.40;;;8.17;;
1747;SDS011;871;47.034;15.394;2022-11-20T06:15:48;46.17;;;8.87;;
1747;SDS011;871;47.034;15.394;2022-11-20T06:18:14;43.63;;;8.82;;
1747;SDS011;871;47.034;15.394;2022-11-20T06:20:40;42.65;;;10.13;;
1747;SDS011;871;47.034;15.394;2022-11-20T06:23:06;47.65;;;10.95;;
1747;SDS011;871;47.034;15.394;2022-11-20T06:25:32;48.58;;;12.23;;
1747;SDS011;871;47.034;15.394;2022-11-20T06:27:58;46.85;;;12.75;;
1747;SDS011;871;47.034;15.394;2022-11-20T06:30:24;46.00;;;11.48;;
1747;SDS011;871;47.034;15.394;2022-11-20T06:32:50;50.00;;;12.83;;
1747;SDS011;871;47.034;15.394;2022-11-20T06:35:16;44.95;;;9.63;;
1747;SDS011;871;47.034;15.394;2022-11-20T06:37:42;46.63;;;10.20;;
1747;SDS011;871;47.034;15.394;2022-11-20T06:40:08;47.95;;;11.02;;
1747;SDS011;871;47.034;15.394;2022-11-20T06:42:36;51.35;;;12.00;;
1747;SDS011;871;47.034;15.394;2022-11-20T06:45:02;50.35;;;10.93;;
1747;SDS011;871;47.034;15.394;2022-11-20T06:47:28;53.05;;;12.40;;
1747;SDS011;871;47.034;15.394;2022-11-20T06:49:54;45.20;;;9.98;;
1747;SDS011;871;47.034;15.394;2022-11-20T06:52:20;51.78;;;10.50;;
1747;SDS011;871;47.034;15.394;2022-11-20T06:54:46;49.70;;;11.52;;
1747;SDS011;871;47.034;15.394;2022-11-20T06:57:12;50.37;;;10.97;;
1747;SDS011;871;47.034;15.394;2022-11-20T06:59:38;50.57;;;11.17;;
1747;SDS011;871;47.034;15.394;2022-11-20T07:02:05;46.77;;;10.87;;
1747;SDS011;871;47.034;15.394;2022-11-20T07:04:31;48.33;;;12.13;;
1747;SDS011;871;47.034;15.394;2022-11-20T07:06:57;45.00;;;10.50;;
1747;SDS011;871;47.034;15.394;2022-11-20T07:09:23;46.97;;;11.80;;
1747;SDS011;871;47.034;15.394;2022-11-20T07:11:49;48.93;;;11.60;;
1747;SDS011;871;47.034;15.394;2022-11-20T07:14:15;59.67;;;14.27;;
1747;SDS011;871;47.034;15.394;2022-11-20T07:16:41;49.20;;;12.60;;
1747;SDS011;871;47.034;15.394;2022-11-20T07:19:07;53.07;;;12.77;;
1747;SDS011;871;47.034;15.394;2022-11-20T07:21:34;53.22;;;12.05;;
1747;SDS011;871;47.034;15.394;2022-11-20T07:24:00;49.10;;;12.33;;
1747;SDS011;871;47.034;15.394;2022-11-20T07:26:26;52.17;;;11.20;;
1747;SDS011;871;47.034;15.394;2022-11-20T07:28:52;48.45;;;10.80;;
1747;SDS011;871;47.034;15.394;2022-11-20T07:31:18;56.42;;;12.85;;
1747;SDS011;871;47.034;15.394;2022-11-20T07:33:44;49.83;;;11.15;;
1747;SDS011;871;47.034;15.394;2022-11-20T07:36:10;54.53;;;12.75;;
1747;SDS011;871;47.034;15.394;2022-11-20T07:38:37;54.00;;;11.75;;
1747;SDS011;871;47.034;15.394;2022-11-20T07:41:03;51.75;;;11.27;;
1747;SDS011;871;47.034;15.394;2022-11-20T07:43:30;52.67;;;12.73;;
1747;SDS011;871;47.034;15.394;2022-11-20T07:45:56;51.05;;;12.13;;
1747;SDS011;871;47.034;15.394;2022-11-20T07:48:23;49.47;;;11.57;;
1747;SDS011;871;47.034;15.394;2022-11-20T07:50:49;50.25;;;12.35;;
1747;SDS011;871;47.034;15.394;2022-11-20T07:53:15;56.30;;;15.07;;
1747;SDS011;871;47.034;15.394;2022-11-20T07:55:45;56.63;;;13.35;;
1747;SDS011;871;47.034;15.394;2022-11-20T07:58:12;55.85;;;14.20;;
1747;SDS011;871;47.034;15.394;2022-11-20T08:00:39;58.28;;;15.32;;
1747;SDS011;871;47.034;15.394;2022-11-20T08:03:05;55.47;;;14.55;;
1747;SDS011;871;47.034;15.394;2022-11-20T08:05:31;60.10;;;16.90;;
1747;SDS011;871;47.034;15.394;2022-11-20T08:07:57;65.97;;;19.05;;
1747;SDS011;871;47.034;15.394;2022-11-20T08:10:23;61.40;;;17.02;;
1747;SDS011;871;47.034;15.394;2022-11-20T08:12:52;61.55;;;15.35;;
1747;SDS011;871;47.034;15.394;2022-11-20T08:15:37;56.08;;;14.23;;
1747;SDS011;871;47.034;15.394;2022-11-20T08:20:32;54.83;;;15.02;;
1747;SDS011;871;47.034;15.394;2022-11-20T08:22:59;55.58;;;14.75;;
1747;SDS011;871;47.034;15.394;2022-11-20T08:25:26;49.65;;;13.25;;
1747;SDS011;871;47.034;15.394;2022-11-20T08:27:52;55.38;;;15.27;;
1747;SDS011;871;47.034;15.394;2022-11-20T08:30:18;51.53;;;12.60;;
1747;SDS011;871;47.034;15.394;2022-11-20T08:32:44;54.30;;;15.30;;
1747;SDS011;871;47.034;15.394;2022-11-20T08:35:10;57.42;;;15.77;;
1747;SDS011;871;47.034;15.394;2022-11-20T08:37:36;55.40;;;14.90;;
1747;SDS011;871;47.034;15.394;2022-11-20T08:40:06;55.97;;;15.63;;
1747;SDS011;871;47.034;15.394;2022-11-20T08:42:32;60.50;;;14.48;;
1747;SDS011;871;47.034;15.394;2022-11-20T08:44:58;54.08;;;13.35;;
1747;SDS011;871;47.034;15.394;2022-11-20T08:47:24;54.37;;;13.70;;
1747;SDS011;871;47.034;15.394;2022-11-20T08:49:50;53.77;;;12.67;;
1747;SDS011;871;47.034;15.394;2022-11-20T08:52:16;54.20;;;13.90;;
1747;SDS011;871;47.034;15.394;2022-11-20T08:54:42;53.25;;;14.20;;
1747;SDS011;871;47.034;15.394;2022-11-20T08:57:09;52.03;;;14.48;;
1747;SDS011;871;47.034;15.394;2022-11-20T08:59:36;55.28;;;14.00;;
1747;SDS011;871;47.034;15.394;2022-11-20T09:02:02;53.80;;;13.50;;
1747;SDS011;871;47.034;15.394;2022-11-20T09:04:28;51.43;;;11.67;;
1747;SDS011;871;47.034;15.394;2022-11-20T09:06:54;49.80;;;11.60;;
1747;SDS011;871;47.034;15.394;2022-11-20T09:09:20;50.80;;;11.55;;
1747;SDS011;871;47.034;15.394;2022-11-20T09:11:46;51.35;;;12.68;;
1747;SDS011;871;47.034;15.394;2022-11-20T09:14:12;54.20;;;13.57;;
1747;SDS011;871;47.034;15.394;2022-11-20T09:16:38;54.63;;;13.25;;
1747;SDS011;871;47.034;15.394;2022-11-20T09:19:05;52.45;;;11.55;;
1747;SDS011;871;47.034;15.394;2022-11-20T09:21:31;55.15;;;13.20;;
1747;SDS011;871;47.034;15.394;2022-11-20T09:23:57;51.15;;;12.80;;
1747;SDS011;871;47.034;15.394;2022-11-20T09:26:23;51.42;;;12.55;;
1747;SDS011;871;47.034;15.394;2022-11-20T09:28:49;56.22;;;13.60;;
1747;SDS011;871;47.034;15.394;2022-11-20T09:31:24;54.63;;;13.40;;
1747;SDS011;871;47.034;15.394;2022-11-20T09:33:51;55.17;;;14.73;;
1747;SDS011;871;47.034;15.394;2022-11-20T09:36:17;51.45;;;12.15;;
1747;SDS011;871;47.034;15.394;2022-11-20T09:38:44;47.33;;;10.00;;
1747;SDS011;871;47.034;15.394;2022-11-20T09:41:36;54.97;;;11.55;;
1747;SDS011;871;47.034;15.394;2022-11-20T09:54:39;53.58;;;12.40;;
1747;SDS011;871;47.034;15.394;2022-11-20T09:59:39;49.70;;;10.87;;
1747;SDS011;871;47.034;15.394;2022-11-20T10:02:12;50.77;;;11.10;;
1747;SDS011;871;47.034;15.394;2022-11-20T10:04:42;47.20;;;9.13;;
1747;SDS011;871;47.034;15.394;2022-11-20T10:07:13;47.93;;;10.00;;
1747;SDS011;871;47.034;15.394;2022-11-20T10:09:43;46.13;;;8.30;;
1747;SDS011;871;47.034;15.394;2022-11-20T10:12:19;49.20;;;10.50;;
1747;SDS011;871;47.034;15.394;2022-11-20T10:14:56;49.07;;;10.80;;
1747;SDS011;871;47.034;15.394;2022-11-20T10:25:26;48.77;;;10.33;;
1747;SDS011;871;47.034;15.394;2022-11-20T10:30:26;48.53;;;9.87;;
1747;SDS011;871;47.034;15.394;2022-11-20T10:32:56;50.87;;;10.57;;
1747;SDS011;871;47.034;15.394;2022-11-20T10:35:26;46.67;;;9.63;;
1747;SDS011;871;47.034;15.394;2022-11-20T10:38:00;49.00;;;10.70;;
1747;SDS011;871;47.034;15.394;2022-11-20T10:40:44;50.43;;;10.57;;
1747;SDS011;871;47.034;15.394;2022-11-20T10:43:19;54.13;;;10.80;;
1747;SDS011;871;47.034;15.394;2022-11-20T10:45:48;54.60;;;12.03;;
1747;SDS011;871;47.034;15.394;2022-11-20T10:48:25;47.30;;;10.30;;
1747;SDS011;871;47.034;15.394;2022-11-20T10:50:57;50.70;;;12.13;;
1747;SDS011;871;47.034;15.394;2022-11-20T10:53:36;51.77;;;12.13;;
1747;SDS011;871;47.034;15.394;2022-11-20T10:56:07;52.10;;;12.00;;
1747;SDS011;871;47.034;15.394;2022-11-20T10:58:38;52.37;;;13.50;;
1747;SDS011;871;47.034;15.394;2022-11-20T11:03:42;50.87;;;12.90;;
1747;SDS011;871;47.034;15.394;2022-11-20T11:08:37;54.70;;;12.37;;
1747;SDS011;871;47.034;15.394;2022-11-20T11:13:37;56.40;;;14.70;;
1747;SDS011;871;47.034;15.394;2022-11-20T11:16:03;53.00;;;13.50;;
1747;SDS011;871;47.034;15.394;2022-11-20T11:18:33;53.37;;;15.00;;
1747;SDS011;871;47.034;15.394;2022-11-20T11:21:01;55.97;;;15.27;;
1747;SDS011;871;47.034;15.394;2022-11-20T11:23:29;57.20;;;16.17;;
1747;SDS011;871;47.034;15.394;2022-11-20T11:25:57;58.83;;;18.00;;
1747;SDS011;871;47.034;15.394;2022-11-20T11:28:24;57.37;;;15.17;;
1747;SDS011;871;47.034;15.394;2022-11-20T11:30:52;57.60;;;17.00;;
1747;SDS011;871;47.034;15.394;2022-11-20T11:33:19;54.90;;;14.47;;
1747;SDS011;871;47.034;15.394;2022-11-20T11:36:14;55.80;;;13.73;;
1747;SDS011;871;47.034;15.394;2022-11-20T11:38:36;55.50;;;14.93;;
1747;SDS011;871;47.034;15.394;2022-11-20T11:41:03;56.20;;;16.20;;
1747;SDS011;871;47.034;15.394;2022-11-20T11:43:31;56.73;;;14.60;;
1747;SDS011;871;47.034;15.394;2022-11-20T11:48:58;54.33;;;11.97;;
1747;SDS011;871;47.034;15.394;2022-11-20T11:51:26;45.70;;;8.80;;
1747;SDS011;871;47.034;15.394;2022-11-20T11:53:54;52.80;;;10.70;;
1747;SDS011;871;47.034;15.394;2022-11-20T11:56:20;49.83;;;11.70;;
1747;SDS011;871;47.034;15.394;2022-11-20T11:58:47;47.37;;;10.20;;
1747;SDS011;871;47.034;15.394;2022-11-20T12:03:41;48.37;;;10.73;;
1747;SDS011;871;47.034;15.394;2022-11-20T12:06:10;46.00;;;8.70;;
1747;SDS011;871;47.034;15.394;2022-11-20T12:13:44;46.40;;;9.00;;
1747;SDS011;871;47.034;15.394;2022-11-20T12:16:11;48.90;;;10.37;;
1747;SDS011;871;47.034;15.394;2022-11-20T12:18:38;46.03;;;9.43;;
1747;SDS011;871;47.034;15.394;2022-11-20T12:34:12;46.67;;;8.37;;
1747;SDS011;871;47.034;15.394;2022-11-20T12:36:50;45.10;;;7.30;;
1747;SDS011;871;47.034;15.394;2022-11-20T12:39:22;46.40;;;7.80;;
1747;SDS011;871;47.034;15.394;2022-11-20T12:47:51;43.20;;;6.97;;
1747;SDS011;871;47.034;15.394;2022-11-20T12:53:21;46.03;;;7.70;;
1747;SDS011;871;47.034;15.394;2022-11-20T12:56:27;45.77;;;7.63;;
1747;SDS011;871;47.034;15.394;2022-11-20T13:04:16;42.90;;;6.40;;
1747;SDS011;871;47.034;15.394;2022-11-20T13:06:44;44.03;;;7.33;;
1747;SDS011;871;47.034;15.394;2022-11-20T13:09:12;45.77;;;7.33;;
1747;SDS011;871;47.034;15.394;2022-11-20T13:14:10;43.27;;;7.43;;
1747;SDS011;871;47.034;15.394;2022-11-20T13:19:04;43.60;;;7.30;;
1747;SDS011;871;47.034;15.394;2022-11-20T13:21:49;44.70;;;7.63;;
1747;SDS011;871;47.034;15.394;2022-11-20T13:26:45;43.77;;;6.83;;
1747;SDS011;871;47.034;15.394;2022-11-20T13:29:12;44.43;;;8.07;;
1747;SDS011;871;47.034;15.394;2022-11-20T13:31:43;44.70;;;7.47;;
1747;SDS011;871;47.034;15.394;2022-11-20T13:34:12;42.77;;;7.43;;
1747;SDS011;871;47.034;15.394;2022-11-20T13:36:49;43.20;;;7.13;;
1747;SDS011;871;47.034;15.394;2022-11-20T13:39:26;45.63;;;7.60;;
1747;SDS011;871;47.034;15.394;2022-11-20T13:41:56;44.67;;;7.60;;
1747;SDS011;871;47.034;15.394;2022-11-20T13:46:55;45.03;;;7.30;;
1747;SDS011;871;47.034;15.394;2022-11-20T13:49:34;42.23;;;6.30;;
1747;SDS011;871;47.034;15.394;2022-11-20T13:54:48;42.47;;;6.50;;
1747;SDS011;871;47.034;15.394;2022-11-20T14:02:29;44.37;;;7.43;;
1747;SDS011;871;47.034;15.394;2022-11-20T14:04:58;44.17;;;7.17;;
1747;SDS011;871;47.034;15.394;2022-11-20T14:07:31;44.17;;;7.50;;
1747;SDS011;871;47.034;15.394;2022-11-20T14:09:58;45.13;;;8.10;;
1747;SDS011;871;47.034;15.394;2022-11-20T14:12:28;45.50;;;8.77;;
1747;SDS011;871;47.034;15.394;2022-11-20T14:14:54;44.43;;;8.73;;
1747;SDS011;871;47.034;15.394;2022-11-20T14:17:22;46.50;;;8.47;;
1747;SDS011;871;47.034;15.394;2022-11-20T14:19:51;46.27;;;9.60;;
1747;SDS011;871;47.034;15.394;2022-11-20T14:22:20;43.10;;;8.77;;
1747;SDS011;871;47.034;15.394;2022-11-20T14:24:47;45.67;;;8.63;;
1747;SDS011;871;47.034;15.394;2022-11-20T14:27:16;42.90;;;7.63;;
1747;SDS011;871;47.034;15.394;2022-11-20T14:29:44;45.47;;;7.77;;
1747;SDS011;871;47.034;15.394;2022-11-20T14:32:10;44.90;;;8.20;;
1747;SDS011;871;47.034;15.394;2022-11-20T14:34:38;46.53;;;7.90;;
1747;SDS011;871;47.034;15.394;2022-11-20T14:37:10;43.37;;;7.47;;
1747;SDS011;871;47.034;15.394;2022-11-20T14:39:40;42.90;;;7.47;;
1747;SDS011;871;47.034;15.394;2022-11-20T14:42:14;42.20;;;7.20;;
1747;SDS011;871;47.034;15.394;2022-11-20T14:44:42;41.50;;;6.83;;
1747;SDS011;871;47.034;15.394;2022-11-20T14:47:09;43.10;;;5.87;;
1747;SDS011;871;47.034;15.394;2022-11-20T14:49:36;42.73;;;6.63;;
1747;SDS011;871;47.034;15.394;2022-11-20T14:52:09;41.90;;;6.57;;
1747;SDS011;871;47.034;15.394;2022-11-20T14:54:43;42.17;;;6.10;;
1747;SDS011;871;47.034;15.394;2022-11-20T14:57:18;42.57;;;6.23;;
1747;SDS011;871;47.034;15.394;2022-11-20T14:59:45;46.10;;;8.53;;
1747;SDS011;871;47.034;15.394;2022-11-20T15:02:11;48.80;;;9.80;;
1747;SDS011;871;47.034;15.394;2022-11-20T15:04:47;48.63;;;9.40;;
1747;SDS011;871;47.034;15.394;2022-11-20T15:07:27;46.93;;;10.90;;
1747;SDS011;871;47.034;15.394;2022-11-20T15:10:07;44.90;;;8.40;;
1747;SDS011;871;47.034;15.394;2022-11-20T15:12:34;41.33;;;6.67;;
1747;SDS011;871;47.034;15.394;2022-11-20T15:15:01;46.20;;;8.30;;
1747;SDS011;871;47.034;15.394;2022-11-20T15:17:28;43.03;;;7.35;;
1747;SDS011;871;47.034;15.394;2022-11-20T15:19:56;44.72;;;8.25;;
1747;SDS011;871;47.034;15.394;2022-11-20T15:22:22;43.20;;;8.80;;
1747;SDS011;871;47.034;15.394;2022-11-20T15:24:50;47.35;;;9.68;;
1747;SDS011;871;47.034;15.394;2022-11-20T15:27:16;49.43;;;12.13;;
1747;SDS011;871;47.034;15.394;2022-11-20T15:29:42;51.33;;;13.30;;
1747;SDS011;871;47.034;15.394;2022-11-20T15:32:09;52.77;;;13.57;;
1747;SDS011;871;47.034;15.394;2022-11-20T15:34:35;45.80;;;11.30;;
1747;SDS011;871;47.034;15.394;2022-11-20T15:37:01;49.67;;;11.13;;
1747;SDS011;871;47.034;15.394;2022-11-20T15:39:27;52.08;;;14.65;;
1747;SDS011;871;47.034;15.394;2022-11-20T15:41:54;77.20;;;26.25;;
1747;SDS011;871;47.034;15.394;2022-11-20T15:44:20;62.92;;;22.83;;
1747;SDS011;871;47.034;15.394;2022-11-20T15:46:46;54.53;;;16.05;;
1747;SDS011;871;47.034;15.394;2022-11-20T15:49:13;54.30;;;15.07;;
1747;SDS011;871;47.034;15.394;2022-11-20T15:51:43;53.90;;;15.60;;
1747;SDS011;871;47.034;15.394;2022-11-20T15:56:37;55.50;;;15.40;;
1747;SDS011;871;47.034;15.394;2022-11-20T15:59:03;48.15;;;12.32;;
1747;SDS011;871;47.034;15.394;2022-11-20T16:01:30;52.10;;;14.63;;
1747;SDS011;871;47.034;15.394;2022-11-20T16:03:56;48.53;;;13.25;;
1747;SDS011;871;47.034;15.394;2022-11-20T16:06:23;53.83;;;14.07;;
1747;SDS011;871;47.034;15.394;2022-11-20T16:08:49;52.17;;;13.15;;
1747;SDS011;871;47.034;15.394;2022-11-20T16:11:16;55.22;;;14.48;;
1747;SDS011;871;47.034;15.394;2022-11-20T16:13:43;53.75;;;14.10;;
1747;SDS011;871;47.034;15.394;2022-11-20T16:16:32;47.58;;;12.05;;
1747;SDS011;871;47.034;15.394;2022-11-20T16:18:58;56.40;;;13.93;;
1747;SDS011;871;47.034;15.394;2022-11-20T16:21:25;57.88;;;17.23;;
1747;SDS011;871;47.034;15.394;2022-11-20T16:24:02;58.42;;;16.13;;
1747;SDS011;871;47.034;15.394;2022-11-20T16:26:28;53.60;;;15.50;;
1747;SDS011;871;47.034;15.394;2022-11-20T16:28:55;50.83;;;14.73;;
1747;SDS011;871;47.034;15.394;2022-11-20T16:31:21;51.88;;;14.30;;
1747;SDS011;871;47.034;15.394;2022-11-20T16:33:51;53.88;;;16.17;;
1747;SDS011;871;47.034;15.394;2022-11-20T16:36:19;54.03;;;14.90;;
1747;SDS011;871;47.034;15.394;2022-11-20T16:38:46;57.42;;;16.00;;
1747;SDS011;871;47.034;15.394;2022-11-20T16:41:14;74.30;;;17.30;;
1747;SDS011;871;47.034;15.394;2022-11-20T16:43:47;59.25;;;16.08;;
1747;SDS011;871;47.034;15.394;2022-11-20T16:46:14;59.43;;;15.80;;
1747;SDS011;871;47.034;15.394;2022-11-20T16:48:40;54.28;;;14.77;;
1747;SDS011;871;47.034;15.394;2022-11-20T16:51:07;56.33;;;15.27;;
1747;SDS011;871;47.034;15.394;2022-11-20T16:53:34;56.33;;;17.73;;
1747;SDS011;871;47.034;15.394;2022-11-20T16:56:08;57.90;;;18.50;;
1747;SDS011;871;47.034;15.394;2022-11-20T16:58:35;55.20;;;16.90;;
1747;SDS011;871;47.034;15.394;2022-11-20T17:01:05;52.37;;;15.50;;
1747;SDS011;871;47.034;15.394;2022-11-20T17:03:34;55.17;;;15.52;;
1747;SDS011;871;47.034;15.394;2022-11-20T17:06:01;55.07;;;16.20;;
1747;SDS011;871;47.034;15.394;2022-11-20T17:08:27;57.20;;;16.75;;
1747;SDS011;871;47.034;15.394;2022-11-20T17:10:54;49.42;;;13.77;;
1747;SDS011;871;47.034;15.394;2022-11-20T17:13:20;53.73;;;15.30;;
1747;SDS011;871;47.034;15.394;2022-11-20T17:15:47;52.15;;;14.75;;
1747;SDS011;871;47.034;15.394;2022-11-20T17:18:13;54.53;;;15.18;;
1747;SDS011;871;47.034;15.394;2022-11-20T17:20:39;51.90;;;14.63;;
1747;SDS011;871;47.034;15.394;2022-11-20T17:23:05;54.45;;;16.63;;
1747;SDS011;871;47.034;15.394;2022-11-20T17:25:31;55.70;;;17.02;;
1747;SDS011;871;47.034;15.394;2022-11-20T17:27:58;56.40;;;16.13;;
1747;SDS011;871;47.034;15.394;2022-11-20T17:30:25;55.33;;;15.00;;
1747;SDS011;871;47.034;15.394;2022-11-20T17:32:51;55.92;;;16.83;;
1747;SDS011;871;47.034;15.394;2022-11-20T17:35:17;56.63;;;17.30;;
1747;SDS011;871;47.034;15.394;2022-11-20T17:37:43;55.70;;;16.30;;
1747;SDS011;871;47.034;15.394;2022-11-20T17:40:10;57.37;;;16.50;;
1747;SDS011;871;47.034;15.394;2022-11-20T17:42:37;65.68;;;18.55;;
1747;SDS011;871;47.034;15.394;2022-11-20T17:45:05;55.88;;;17.27;;
1747;SDS011;871;47.034;15.394;2022-11-20T17:47:33;58.73;;;15.73;;
1747;SDS011;871;47.034;15.394;2022-11-20T17:50:00;54.73;;;16.87;;
1747;SDS011;871;47.034;15.394;2022-11-20T17:52:27;55.00;;;15.60;;
1747;SDS011;871;47.034;15.394;2022-11-20T17:54:53;54.17;;;16.80;;
1747;SDS011;871;47.034;15.394;2022-11-20T17:57:22;53.92;;;16.63;;
1747;SDS011;871;47.034;15.394;2022-11-20T18:00:07;53.50;;;14.43;;
1747;SDS011;871;47.034;15.394;2022-11-20T18:02:37;56.13;;;16.60;;
1747;SDS011;871;47.034;15.394;2022-11-20T18:05:03;56.38;;;16.20;;
1747;SDS011;871;47.034;15.394;2022-11-20T18:07:29;58.45;;;15.80;;
1747;SDS011;871;47.034;15.394;2022-11-20T18:09:55;55.28;;;15.90;;
1747;SDS011;871;47.034;15.394;2022-11-20T18:12:22;57.05;;;16.77;;
1747;SDS011;871;47.034;15.394;2022-11-20T18:14:48;55.70;;;15.98;;
1747;SDS011;871;47.034;15.394;2022-11-20T18:17:14;48.72;;;13.20;;
1747;SDS011;871;47.034;15.394;2022-11-20T18:19:43;50.53;;;14.77;;
1747;SDS011;871;47.034;15.394;2022-11-20T18:22:11;45.65;;;11.82;;
1747;SDS011;871;47.034;15.394;2022-11-20T18:24:37;49.88;;;12.32;;
1747;SDS011;871;47.034;15.394;2022-11-20T18:27:07;46.25;;;11.55;;
1747;SDS011;871;47.034;15.394;2022-11-20T18:29:33;47.33;;;12.70;;
1747;SDS011;871;47.034;15.394;2022-11-20T18:32:00;49.13;;;13.60;;
1747;SDS011;871;47.034;15.394;2022-11-20T18:34:26;51.53;;;13.00;;
1747;SDS011;871;47.034;15.394;2022-11-20T18:36:53;44.25;;;10.18;;
1747;SDS011;871;47.034;15.394;2022-11-20T18:39:19;41.28;;;7.90;;
1747;SDS011;871;47.034;15.394;2022-11-20T18:41:46;50.70;;;13.70;;
1747;SDS011;871;47.034;15.394;2022-11-20T18:44:31;50.05;;;10.77;;
1747;SDS011;871;47.034;15.394;2022-11-20T18:47:23;47.80;;;12.15;;
1747;SDS011;871;47.034;15.394;2022-11-20T18:49:50;53.75;;;12.63;;
1747;SDS011;871;47.034;15.394;2022-11-20T18:55:02;50.30;;;12.02;;
1747;SDS011;871;47.034;15.394;2022-11-20T18:57:29;53.00;;;13.07;;
1747;SDS011;871;47.034;15.394;2022-11-20T18:59:56;51.95;;;14.18;;
1747;SDS011;871;47.034;15.394;2022-11-20T19:02:26;49.72;;;11.27;;
1747;SDS011;871;47.034;15.394;2022-11-20T19:04:53;50.05;;;12.75;;
1747;SDS011;871;47.034;15.394;2022-11-20T19:07:19;50.63;;;13.77;;
1747;SDS011;871;47.034;15.394;2022-11-20T19:09:49;50.10;;;12.38;;
1747;SDS011;871;47.034;15.394;2022-11-20T19:12:16;50.20;;;13.27;;
1747;SDS011;871;47.034;15.394;2022-11-20T19:14:43;53.17;;;12.27;;
1747;SDS011;871;47.034;15.394;2022-11-20T19:17:09;50.57;;;12.50;;
1747;SDS011;871;47.034;15.394;2022-11-20T19:19:37;52.17;;;12.70;;
1747;SDS011;871;47.034;15.394;2022-11-20T19:22:04;52.10;;;13.00;;
1747;SDS011;871;47.034;15.394;2022-11-20T19:24:31;56.53;;;13.13;;
1747;SDS011;871;47.034;15.394;2022-11-20T19:26:59;53.58;;;12.88;;
1747;SDS011;871;47.034;15.394;2022-11-20T19:29:25;56.30;;;13.68;;
1747;SDS011;871;47.034;15.394;2022-11-20T19:31:53;52.92;;;14.13;;
1747;SDS011;871;47.034;15.394;2022-11-20T19:34:23;56.08;;;13.80;;
1747;SDS011;871;47.034;15.394;2022-11-20T19:36:50;55.50;;;13.50;;
1747;SDS011;871;47.034;15.394;2022-11-20T19:39:17;55.95;;;14.68;;
1747;SDS011;871;47.034;15.394;2022-11-20T19:41:44;56.22;;;14.73;;
1747;SDS011;871;47.034;15.394;2022-11-20T19:44:12;61.45;;;15.57;;
1747;SDS011;871;47.034;15.394;2022-11-20T19:46:41;58.92;;;14.82;;
1747;SDS011;871;47.034;15.394;2022-11-20T19:49:09;55.00;;;14.40;;
1747;SDS011;871;47.034;15.394;2022-11-20T19:51:36;56.40;;;13.35;;
1747;SDS011;871;47.034;15.394;2022-11-20T19:54:04;58.20;;;15.60;;
1747;SDS011;871;47.034;15.394;2022-11-20T19:56:31;58.03;;;14.55;;
1747;SDS011;871;47.034;15.394;2022-11-20T19:58:58;59.70;;;18.15;;
1747;SDS011;871;47.034;15.394;2022-11-20T20:01:25;51.95;;;14.82;;
1747;SDS011;871;47.034;15.394;2022-11-20T20:03:52;55.60;;;15.23;;
1747;SDS011;871;47.034;15.394;2022-11-20T20:06:21;55.10;;;14.95;;
1747;SDS011;871;47.034;15.394;2022-11-20T20:08:56;52.03;;;14.80;;
1747;SDS011;871;47.034;15.394;2022-11-20T20:11:23;56.28;;;14.82;;
1747;SDS011;871;47.034;15.394;2022-11-20T20:13:50;61.92;;;16.13;;
1747;SDS011;871;47.034;15.394;2022-11-20T20:16:18;52.67;;;15.30;;
1747;SDS011;871;47.034;15.394;2022-11-20T20:18:45;55.60;;;15.15;;
1747;SDS011;871;47.034;15.394;2022-11-20T20:21:12;56.20;;;15.32;;
1747;SDS011;871;47.034;15.394;2022-11-20T20:23:41;57.05;;;16.80;;
1747;SDS011;871;47.034;15.394;2022-11-20T20:26:08;51.70;;;15.75;;
1747;SDS011;871;47.034;15.394;2022-11-20T20:28:36;56.35;;;14.35;;
1747;SDS011;871;47.034;15.394;2022-11-20T20:31:06;60.28;;;18.30;;
1747;SDS011;871;47.034;15.394;2022-11-20T20:33:32;58.63;;;17.40;;
1747;SDS011;871;47.034;15.394;2022-11-20T20:35:58;55.05;;;13.80;;
1747;SDS011;871;47.034;15.394;2022-11-20T20:38:27;63.20;;;16.10;;
1747;SDS011;871;47.034;15.394;2022-11-20T20:40:53;61.58;;;16.20;;
1747;SDS011;871;47.034;15.394;2022-11-20T20:43:19;53.53;;;13.73;;
1747;SDS011;871;47.034;15.394;2022-11-20T20:45:46;57.90;;;14.30;;
1747;SDS011;871;47.034;15.394;2022-11-20T20:48:14;56.05;;;13.60;;
1747;SDS011;871;47.034;15.394;2022-11-20T20:50:40;56.55;;;13.30;;
1747;SDS011;871;47.034;15.394;2022-11-20T20:53:09;55.67;;;14.18;;
1747;SDS011;871;47.034;15.394;2022-11-20T20:55:35;57.20;;;13.93;;
1747;SDS011;871;47.034;15.394;2022-11-20T20:58:01;58.92;;;15.02;;
1747;SDS011;871;47.034;15.394;2022-11-20T21:00:27;64.93;;;16.10;;
1747;SDS011;871;47.034;15.394;2022-11-20T21:02:54;55.90;;;14.00;;
1747;SDS011;871;47.034;15.394;2022-11-20T21:05:21;52.17;;;11.75;;
1747;SDS011;871;47.034;15.394;2022-11-20T21:07:49;54.63;;;13.20;;
1747;SDS011;871;47.034;15.394;2022-11-20T21:10:34;58.88;;;14.25;;
1747;SDS011;871;47.034;15.394;2022-11-20T21:13:03;55.78;;;13.02;;
1747;SDS011;871;47.034;15.394;2022-11-20T21:15:31;62.13;;;15.10;;
1747;SDS011;871;47.034;15.394;2022-11-20T21:17:58;57.25;;;13.68;;
1747;SDS011;871;47.034;15.394;2022-11-20T21:20:24;60.22;;;15.15;;
1747;SDS011;871;47.034;15.394;2022-11-20T21:23:09;58.22;;;15.60;;
1747;SDS011;871;47.034;15.394;2022-11-20T21:25:36;55.42;;;14.55;;
1747;SDS011;871;47.034;15.394;2022-11-20T21:28:03;63.97;;;15.77;;
1747;SDS011;871;47.034;15.394;2022-11-20T21:30:29;54.55;;;13.98;;
1747;SDS011;871;47.034;15.394;2022-11-20T21:32:55;54.80;;;13.87;;